Time;durP1;ratioP1;P1;durP2;ratioP2;P2;SDS_P1;SDS_P2;PMS_P1;PMS_P2;Temp;Humidity;BMP_temperature;BMP_pressure;BME280_temperature;BME280_humidity;BME280_pressure;Samples;Min_cycle;Max_cycle;Signal;HPM_P1;HPM_P2
2023/12/17 00:02:06;;;;;;;2.53;2.43;;;;;;;2.18;82.97;96794.50;4953487;28;20202;-70
2023/12/17 00:04:31;;;;;;;2.30;2.20;;;;;;;2.16;82.76;96793.81;4953345;28;20174;-70
2023/12/17 00:06:59;;;;;;;0.90;0.90;;;;;;;2.15;82.91;96792.16;4953193;28;20677;-70
2023/12/17 00:09:24;;;;;;;1.13;1.13;;;;;;;2.11;83.10;96788.94;4953168;28;20175;-70
2023/12/17 00:11:49;;;;;;;10.07;6.53;;;;;;;2.00;83.78;96801.03;4953050;28;20171;-70
2023/12/17 00:14:15;;;;;;;2.30;2.20;;;;;;;1.97;83.21;96806.47;4953164;28;20182;-70
2023/12/17 00:16:40;;;;;;;1.70;1.60;;;;;;;1.99;83.82;96805.41;4952926;28;20733;-70
2023/12/17 00:19:06;;;;;;;1.17;1.17;;;;;;;1.92;83.64;96809.38;4953184;28;20210;-70
2023/12/17 00:21:32;;;;;;;1.87;1.80;;;;;;;1.96;83.67;96810.00;4952860;28;20194;-70
2023/12/17 00:23:58;;;;;;;3.67;3.57;;;;;;;1.80;83.78;96800.72;4953181;28;20183;-70
2023/12/17 00:26:23;;;;;;;1.33;1.33;;;;;;;1.88;83.61;96821.75;4972182;28;20270;-70
2023/12/17 00:28:48;;;;;;;2.37;2.30;;;;;;;1.88;84.20;96824.34;4971973;28;20174;-70
2023/12/17 00:31:14;;;;;;;0.70;0.70;;;;;;;1.78;84.29;96825.94;4972354;28;20541;-70
2023/12/17 00:33:39;;;;;;;3.03;2.83;;;;;;;1.76;84.53;96842.56;4972521;28;20214;-70
2023/12/17 00:36:05;;;;;;;1.33;1.33;;;;;;;1.68;84.47;96834.47;4972464;28;20174;-70
2023/12/17 00:38:31;;;;;;;0.60;0.60;;;;;;;1.68;84.54;96831.88;4972301;28;20165;-70
2023/12/17 00:40:56;;;;;;;3.67;3.47;;;;;;;1.57;84.73;96813.63;4972041;28;20214;-70
2023/12/17 00:43:22;;;;;;;0.53;0.53;;;;;;;1.59;84.89;96835.13;4972485;28;20617;-70
2023/12/17 00:45:47;;;;;;;0.70;0.70;;;;;;;1.54;85.07;96834.63;4972052;28;20657;-70
2023/12/17 00:48:13;;;;;;;0.97;0.97;;;;;;;1.52;84.29;96835.56;4972078;28;20234;-70
2023/12/17 00:50:38;;;;;;;0.60;0.60;;;;;;;1.40;84.41;96819.97;4971914;28;20180;-70
2023/12/17 00:53:04;;;;;;;0.57;0.57;;;;;;;1.27;84.72;96816.59;4971988;28;20174;-70
2023/12/17 00:55:29;;;;;;;1.03;1.03;;;;;;;1.39;85.31;96833.88;4972141;28;20268;-70
2023/12/17 00:57:55;;;;;;;1.50;1.50;;;;;;;1.41;84.80;96834.63;4972004;28;20174;-70
2023/12/17 01:00:20;;;;;;;0.57;0.57;;;;;;;1.43;84.57;96831.00;4970471;28;20174;-70
2023/12/17 01:02:46;;;;;;;0.50;0.50;;;;;;;1.42;84.71;96826.75;4971797;28;20681;-70
2023/12/17 01:05:12;;;;;;;1.40;1.40;;;;;;;1.40;84.36;96822.56;4971659;28;20174;-71
2023/12/17 01:07:37;;;;;;;2.50;2.40;;;;;;;1.48;84.44;96828.06;4971800;28;20181;-70
2023/12/17 01:10:03;;;;;;;0.90;0.90;;;;;;;1.40;84.94;96812.19;4968898;28;20170;-70
2023/12/17 01:12:29;;;;;;;0.83;0.83;;;;;;;1.49;84.83;96833.16;4952763;28;20171;-70
2023/12/17 01:14:54;;;;;;;0.60;0.60;;;;;;;1.41;84.97;96817.28;4952405;28;20331;-70
2023/12/17 01:17:20;;;;;;;0.70;0.70;;;;;;;1.48;84.41;96828.91;4951980;28;20222;-70
2023/12/17 01:19:45;;;;;;;1.43;1.37;;;;;;;1.46;84.76;96827.38;4952361;28;20693;-70
2023/12/17 01:22:11;;;;;;;0.53;0.53;;;;;;;1.48;84.46;96820.28;4963992;28;20261;-71
2023/12/17 01:24:37;;;;;;;0.50;0.50;;;;;;;1.49;84.69;96832.31;4971200;28;20177;-71
2023/12/17 01:27:03;;;;;;;0.70;0.70;;;;;;;1.52;84.29;96837.31;4970294;28;20556;-71
2023/12/17 01:29:29;;;;;;;0.70;0.70;;;;;;;1.45;84.62;96828.31;4971178;28;20170;-70
2023/12/17 01:31:57;;;;;;;0.50;0.50;;;;;;;1.52;84.52;96845.94;4970968;28;20166;-70
2023/12/17 01:34:23;;;;;;;2.97;2.87;;;;;;;1.51;84.36;96848.63;4971062;28;20177;-70
2023/12/17 01:36:49;;;;;;;0.60;0.60;;;;;;;1.54;83.94;96845.81;4970907;28;20561;-70
2023/12/17 01:39:16;;;;;;;0.80;0.80;;;;;;;1.48;84.66;96848.81;4970575;28;20170;-70
2023/12/17 01:41:41;;;;;;;9.53;6.60;;;;;;;1.52;83.73;96845.94;4969855;28;20256;-71
2023/12/17 01:44:07;;;;;;;0.67;0.67;;;;;;;1.47;83.78;96847.19;4970875;28;21006;-72
2023/12/17 01:46:32;;;;;;;1.70;1.53;;;;;;;1.47;84.05;96854.97;4968633;28;20563;-72
2023/12/17 01:48:58;;;;;;;0.50;0.50;;;;;;;1.42;83.73;96859.63;4951510;28;20242;-72
2023/12/17 01:51:24;;;;;;;0.50;0.50;;;;;;;1.39;83.87;96859.84;4951712;28;20664;-71
2023/12/17 01:53:50;;;;;;;0.70;0.70;;;;;;;1.38;84.54;96855.59;4951675;28;20166;-70
2023/12/17 01:56:16;;;;;;;0.53;0.53;;;;;;;1.36;84.22;96850.50;4946713;28;20170;-69
2023/12/17 01:58:44;;;;;;;0.50;0.50;;;;;;;1.37;84.22;96857.38;4951429;28;20180;-71
2023/12/17 02:01:10;;;;;;;0.60;0.60;;;;;;;1.24;83.93;96840.13;4951425;28;20173;-71
2023/12/17 02:03:35;;;;;;;0.53;0.53;;;;;;;1.35;83.76;96851.44;4951600;28;20178;-71
2023/12/17 02:06:01;;;;;;;0.50;0.50;;;;;;;1.28;83.82;96842.44;4949267;28;20166;-71
2023/12/17 02:08:27;;;;;;;0.50;0.50;;;;;;;1.27;83.90;96845.13;4951276;28;20183;-70
2023/12/17 02:10:53;;;;;;;0.83;0.83;;;;;;;1.09;83.94;96827.28;4951095;28;20186;-71
2023/12/17 02:13:19;;;;;;;0.50;0.50;;;;;;;1.16;84.41;96830.28;4949764;28;20187;-70
2023/12/17 02:15:45;;;;;;;0.50;0.50;;;;;;;1.21;84.12;96837.78;4949779;28;20564;-71
2023/12/17 02:18:10;;;;;;;0.50;0.50;;;;;;;1.10;83.87;96834.13;4950802;28;20201;-71
2023/12/17 02:20:36;;;;;;;0.50;0.50;;;;;;;1.00;83.95;96833.09;4952696;28;20175;-73
2023/12/17 02:23:02;;;;;;;0.60;0.60;;;;;;;1.02;83.96;96844.19;4970333;28;20562;-71
2023/12/17 02:25:28;;;;;;;0.50;0.50;;;;;;;0.98;84.68;96842.72;4966807;28;20179;-71
2023/12/17 02:27:58;;;;;;;1.23;1.23;;;;;;;0.99;84.71;96825.41;4949980;29;20199;-71
2023/12/17 02:30:24;;;;;;;0.50;0.50;;;;;;;0.98;84.43;96837.53;4966910;28;20185;-71
2023/12/17 02:32:51;;;;;;;0.90;0.90;;;;;;;0.97;84.44;96837.63;4970531;28;20169;-70
2023/12/17 02:35:17;;;;;;;0.77;0.77;;;;;;;0.94;83.86;96833.50;4970376;28;20195;-69
2023/12/17 02:37:42;;;;;;;0.50;0.50;;;;;;;0.93;83.85;96836.19;4970458;28;20177;-69
2023/12/17 02:40:08;;;;;;;0.90;0.90;;;;;;;0.87;84.23;96829.63;4970727;28;20184;-70
2023/12/17 02:42:33;;;;;;;0.50;0.50;;;;;;;0.94;84.33;96843.88;4970142;28;20288;-70
2023/12/17 02:44:59;;;;;;;0.50;0.50;;;;;;;0.96;84.03;96839.41;4969717;28;20177;-70
2023/12/17 02:47:24;;;;;;;0.50;0.50;;;;;;;0.99;84.21;96853.94;4969864;28;20692;-71
2023/12/17 02:49:50;;;;;;;0.53;0.53;;;;;;;0.98;84.09;96844.47;4966356;28;20217;-70
2023/12/17 02:52:15;;;;;;;0.60;0.60;;;;;;;0.97;83.19;96851.44;4954325;28;20230;-70
2023/12/17 02:54:42;;;;;;;1.33;1.33;;;;;;;0.83;83.20;96825.63;4954516;28;20175;-69
2023/12/17 02:57:07;;;;;;;0.70;0.70;;;;;;;0.81;83.14;96827.47;4954774;28;20174;-70
2023/12/17 02:59:33;;;;;;;0.50;0.50;;;;;;;0.63;83.21;96820.91;4954395;28;20206;-70
2023/12/17 03:01:58;;;;;;;0.50;0.50;;;;;;;0.75;82.92;96844.28;4954285;28;20673;-67
2023/12/17 03:04:24;;;;;;;1.37;1.30;;;;;;;0.73;83.92;96843.53;4955004;28;20178;-70
2023/12/17 03:06:49;;;;;;;0.50;0.50;;;;;;;0.68;83.75;96837.84;4954299;28;20308;-70
2023/12/17 03:09:15;;;;;;;0.90;0.90;;;;;;;0.67;83.25;96848.28;4954265;28;20170;-70
2023/12/17 03:11:41;;;;;;;0.50;0.50;;;;;;;0.67;83.24;96843.13;4954080;28;20178;-71
2023/12/17 03:14:06;;;;;;;0.50;0.50;;;;;;;0.68;83.53;96852.56;4954257;28;20268;-71
2023/12/17 03:16:32;;;;;;;0.73;0.73;;;;;;;0.68;84.18;96855.16;4954469;28;20193;-71
2023/12/17 03:18:57;;;;;;;0.70;0.70;;;;;;;0.71;83.43;96849.75;4954340;28;20206;-71
2023/12/17 03:21:24;;;;;;;0.50;0.50;;;;;;;0.61;83.48;96825.34;4954218;28;20304;-71
2023/12/17 03:23:53;;;;;;;1.43;1.43;;;;;;;0.70;83.08;96829.94;4954368;28;20175;-71
2023/12/17 03:26:18;;;;;;;0.60;0.60;;;;;;;0.78;83.16;96847.59;4954176;28;20206;-71
2023/12/17 03:28:44;;;;;;;0.50;0.50;;;;;;;0.70;83.04;96845.47;4954231;28;20221;-70
2023/12/17 03:31:16;;;;;;;0.60;0.60;;;;;;;0.61;83.46;96833.97;4966189;28;20717;-70
2023/12/17 03:33:43;;;;;;;0.70;0.70;;;;;;;0.72;83.54;96843.63;4973593;28;20174;-71
2023/12/17 03:36:11;;;;;;;0.50;0.50;;;;;;;0.77;83.77;96851.13;4973466;28;20178;-71
2023/12/17 03:38:37;;;;;;;0.60;0.60;;;;;;;0.72;83.41;96854.00;4973223;28;20178;-71
2023/12/17 03:41:02;;;;;;;0.50;0.50;;;;;;;0.78;83.32;96863.94;4973233;28;20613;-71
2023/12/17 03:43:28;;;;;;;0.50;0.50;;;;;;;0.78;83.24;96863.94;4973123;28;20281;-70
2023/12/17 03:45:54;;;;;;;0.50;0.50;;;;;;;0.79;82.73;96859.59;4973058;28;20327;-71
2023/12/17 03:48:19;;;;;;;1.43;1.43;;;;;;;0.80;83.09;96866.44;4972865;28;20237;-71
2023/12/17 03:50:45;;;;;;;0.50;0.50;;;;;;;0.81;83.58;96868.09;4973081;28;20184;-71
2023/12/17 03:53:10;;;;;;;0.50;0.50;;;;;;;0.80;82.88;96871.63;4972987;28;20170;-71
2023/12/17 03:55:37;;;;;;;0.50;0.50;;;;;;;0.80;83.32;96872.47;4972848;28;20178;-71
2023/12/17 03:58:03;;;;;;;0.50;0.50;;;;;;;0.84;83.31;96873.94;4972705;28;20178;-71
2023/12/17 04:00:29;;;;;;;0.50;0.50;;;;;;;0.82;83.36;96877.53;4972659;28;20174;-70
2023/12/17 04:02:54;;;;;;;1.03;1.03;;;;;;;0.87;83.05;96878.06;4972120;28;20214;-71
2023/12/17 04:05:20;;;;;;;0.50;0.50;;;;;;;0.87;82.71;96872.88;4972739;28;20619;-71
2023/12/17 04:07:45;;;;;;;0.50;0.50;;;;;;;0.85;82.95;96874.75;4972718;28;20237;-71
2023/12/17 04:10:11;;;;;;;0.50;0.50;;;;;;;0.85;82.60;96882.53;4963524;28;20535;-71
2023/12/17 04:12:36;;;;;;;0.40;0.40;;;;;;;0.83;82.63;96877.44;4953465;28;20566;-71
2023/12/17 04:15:02;;;;;;;0.90;0.90;;;;;;;0.75;83.01;96877.97;4951981;28;20197;-71
2023/12/17 04:17:27;;;;;;;0.50;0.50;;;;;;;0.72;82.44;96875.56;4953200;28;20190;-71
2023/12/17 04:19:52;;;;;;;0.60;0.60;;;;;;;0.71;83.04;96884.25;4953655;28;20272;-70
2023/12/17 04:22:18;;;;;;;6.53;3.60;;;;;;;0.52;82.64;96865.66;4953036;28;20202;-70
2023/12/17 04:24:43;;;;;;;0.50;0.50;;;;;;;0.57;83.35;96886.09;4953198;28;20179;-70
2023/12/17 04:27:09;;;;;;;0.70;0.70;;;;;;;0.44;83.52;96857.53;4953055;28;20210;-71
2023/12/17 04:29:35;;;;;;;0.70;0.70;;;;;;;0.57;83.15;96886.94;4952935;28;20190;-70
2023/12/17 04:32:00;;;;;;;0.90;0.90;;;;;;;0.38;83.30;96861.38;4953045;28;20724;-70
2023/12/17 04:34:25;;;;;;;0.60;0.60;;;;;;;0.52;84.11;96885.56;4965607;28;20178;-70
2023/12/17 04:36:51;;;;;;;0.60;0.60;;;;;;;0.53;83.69;96894.97;4972166;28;20219;-70
2023/12/17 04:39:16;;;;;;;0.60;0.60;;;;;;;0.57;83.65;96889.53;4972033;28;20535;-70
2023/12/17 04:41:42;;;;;;;0.60;0.60;;;;;;;0.62;83.21;96895.22;4966209;28;20199;-70
2023/12/17 04:44:07;;;;;;;0.50;0.50;;;;;;;0.64;83.00;96895.13;4952811;28;20190;-71
2023/12/17 04:46:33;;;;;;;0.50;0.50;;;;;;;0.66;82.89;96895.88;4952687;28;20171;-71
2023/12/17 04:48:59;;;;;;;2.10;1.63;;;;;;;0.62;82.84;96887.44;4952524;28;20305;-71
2023/12/17 04:51:25;;;;;;;0.60;0.60;;;;;;;0.67;82.73;96902.72;4952803;28;20175;-70
2023/12/17 04:53:51;;;;;;;0.80;0.80;;;;;;;0.72;82.93;96898.88;4952769;28;20171;-71
2023/12/17 04:56:17;;;;;;;2.27;2.17;;;;;;;0.67;83.39;96903.53;4952651;28;20182;-70
2023/12/17 04:58:43;;;;;;;1.43;1.43;;;;;;;0.48;82.85;96894.47;4952544;28;20225;-71
2023/12/17 05:01:08;;;;;;;0.90;0.90;;;;;;;0.43;83.48;96896.53;4952342;28;20189;-71
2023/12/17 05:03:36;;;;;;;0.60;0.60;;;;;;;0.44;85.21;96892.97;4952375;28;20187;-71
2023/12/17 05:06:01;;;;;;;0.50;0.50;;;;;;;0.34;85.13;96882.41;4952316;28;20190;-71
2023/12/17 05:08:27;;;;;;;0.50;0.50;;;;;;;0.51;84.66;96908.06;4952211;28;20178;-71
2023/12/17 05:10:52;;;;;;;1.20;1.20;;;;;;;0.51;84.42;96912.41;4952262;28;20181;-71
2023/12/17 05:13:18;;;;;;;0.63;0.63;;;;;;;0.52;84.79;96908.91;4951803;28;20181;-71
2023/12/17 05:15:43;;;;;;;0.70;0.70;;;;;;;0.45;84.03;96902.41;4951807;28;20273;-71
2023/12/17 05:18:09;;;;;;;1.43;1.43;;;;;;;0.58;83.46;96922.28;4952044;28;20650;-71
2023/12/17 05:20:34;;;;;;;0.50;0.50;;;;;;;0.51;84.06;96922.78;4952035;28;20197;-71
2023/12/17 05:23:00;;;;;;;0.60;0.60;;;;;;;0.47;83.84;96923.88;4965537;28;20212;-71
2023/12/17 05:25:25;;;;;;;0.60;0.60;;;;;;;0.49;83.61;96930.63;4957802;28;20178;-71
2023/12/17 05:27:51;;;;;;;0.77;0.77;;;;;;;0.49;84.11;96933.22;4951564;28;20179;-71
2023/12/17 05:30:16;;;;;;;0.60;0.60;;;;;;;0.45;83.98;96933.50;4967341;28;20181;-71
2023/12/17 05:32:42;;;;;;;2.13;2.10;;;;;;;0.46;84.14;96941.19;4970630;28;20186;-71
2023/12/17 05:35:08;;;;;;;0.70;0.70;;;;;;;0.34;83.59;96927.28;4970575;28;20887;-71
2023/12/17 05:37:33;;;;;;;1.43;1.43;;;;;;;0.44;83.60;96952.56;4970450;28;20186;-71
2023/12/17 05:39:59;;;;;;;1.80;1.57;;;;;;;0.44;83.51;96952.56;4970859;28;20181;-71
2023/12/17 05:42:24;;;;;;;0.77;0.77;;;;;;;0.31;83.86;96921.44;4970684;28;20209;-71
2023/12/17 05:44:50;;;;;;;0.60;0.60;;;;;;;0.46;83.80;96959.31;4970839;28;20264;-71
2023/12/17 05:47:16;;;;;;;1.53;1.53;;;;;;;0.49;83.84;96956.53;4970334;28;20240;-71
2023/12/17 05:49:42;;;;;;;0.67;0.67;;;;;;;0.34;83.73;96937.63;4954478;28;20213;-71
2023/12/17 05:52:08;;;;;;;0.50;0.50;;;;;;;0.51;83.57;96948.69;4951673;28;20639;-72
2023/12/17 05:54:33;;;;;;;0.50;0.50;;;;;;;0.49;82.92;96942.75;4951571;28;20194;-72
2023/12/17 05:57:00;;;;;;;0.50;0.50;;;;;;;0.58;82.81;96952.53;4965729;28;20180;-72
2023/12/17 05:59:25;;;;;;;0.53;0.53;;;;;;;0.61;83.22;96940.19;4967030;28;20178;-72
2023/12/17 06:01:51;;;;;;;1.17;1.17;;;;;;;0.62;82.89;96948.81;4951152;28;20246;-72
2023/12/17 06:04:16;;;;;;;0.50;0.50;;;;;;;0.60;82.99;96954.13;4949713;28;20178;-72
2023/12/17 06:06:42;;;;;;;0.50;0.50;;;;;;;0.58;82.90;96949.94;4951289;28;20175;-72
2023/12/17 06:09:08;;;;;;;2.20;2.10;;;;;;;0.50;82.66;96932.31;4950659;28;20198;-71
2023/12/17 06:11:33;;;;;;;0.67;0.67;;;;;;;0.63;82.48;96956.50;4951400;28;20253;-71
2023/12/17 06:13:59;;;;;;;1.03;1.03;;;;;;;0.66;82.98;96958.91;4951587;28;20963;-71
2023/12/17 06:16:25;;;;;;;0.50;0.50;;;;;;;0.67;82.42;96949.38;4951336;28;20189;-71
2023/12/17 06:18:52;;;;;;;0.50;0.50;;;;;;;0.54;82.84;96941.53;4951265;28;20190;-71
2023/12/17 06:21:26;;;;;;;0.70;0.70;;;;;;;0.46;83.17;96930.81;4960579;28;20228;-71
2023/12/17 06:23:57;;;;;;;4.13;2.33;;;;;;;0.58;83.12;96947.34;4950082;28;20240;-71
2023/12/17 06:26:24;;;;;;;1.03;1.03;;;;;;;0.61;83.30;96952.31;4955707;28;20182;-71
2023/12/17 06:28:49;;;;;;;1.77;1.77;;;;;;;0.67;82.66;96959.72;4972810;28;20231;-71
2023/12/17 06:31:15;;;;;;;8.30;3.37;;;;;;;0.77;82.80;96962.56;4976726;28;20552;-71
2023/12/17 06:33:40;;;;;;;0.60;0.60;;;;;;;0.84;82.71;96962.06;4976457;28;20189;-71
2023/12/17 06:36:06;;;;;;;2.10;1.67;;;;;;;0.92;82.47;96975.38;4976386;28;20174;-71
2023/12/17 06:38:31;;;;;;;0.60;0.60;;;;;;;1.04;82.12;96966.78;4976636;28;20178;-70
2023/12/17 06:40:57;;;;;;;0.60;0.60;;;;;;;1.26;81.91;96962.78;4976644;28;20242;-70
2023/12/17 06:43:22;;;;;;;1.10;1.10;;;;;;;1.67;81.67;96971.22;4976546;28;21064;-71
2023/12/17 06:45:48;;;;;;;0.50;0.50;;;;;;;2.28;80.15;96973.03;4976373;28;20182;-71
2023/12/17 06:48:13;;;;;;;0.60;0.60;;;;;;;2.50;77.86;96950.72;4975950;28;20229;-71
2023/12/17 06:50:39;;;;;;;0.57;0.57;;;;;;;2.76;77.09;96970.50;4976631;28;20173;-71
2023/12/17 06:53:04;;;;;;;0.50;0.50;;;;;;;2.84;76.74;96975.13;4976397;28;20182;-71
2023/12/17 06:55:30;;;;;;;0.50;0.50;;;;;;;2.86;76.30;96970.63;4976016;28;20181;-71
2023/12/17 06:57:56;;;;;;;0.93;0.93;;;;;;;2.91;76.07;96994.56;4976336;28;20173;-71
2023/12/17 07:00:21;;;;;;;0.50;0.50;;;;;;;2.94;75.90;96995.16;4975937;28;20184;-71
2023/12/17 07:02:47;;;;;;;1.37;1.37;;;;;;;3.00;76.88;96993.91;4956466;28;20206;-71
2023/12/17 07:05:12;;;;;;;1.03;1.03;;;;;;;3.31;76.28;97008.09;4956774;28;20178;-71
2023/12/17 07:07:38;;;;;;;1.10;1.10;;;;;;;3.38;75.41;97011.88;4955413;28;20182;-71
2023/12/17 07:10:06;;;;;;;2.23;2.13;;;;;;;3.41;75.89;97012.50;4957002;28;20552;-71
2023/12/17 07:12:31;;;;;;;0.50;0.50;;;;;;;3.44;76.17;97016.66;4957015;28;20537;-71
2023/12/17 07:14:57;;;;;;;1.10;1.10;;;;;;;3.38;75.41;97017.09;4957286;28;20208;-71
2023/12/17 07:17:22;;;;;;;1.93;1.20;;;;;;;3.37;75.96;97010.25;4957025;28;20174;-71
2023/12/17 07:19:48;;;;;;;0.50;0.50;;;;;;;3.36;76.05;97019.84;4956761;28;20178;-71
2023/12/17 07:22:13;;;;;;;0.90;0.90;;;;;;;3.46;76.13;97006.94;4957400;28;20262;-71
2023/12/17 07:24:39;;;;;;;0.50;0.50;;;;;;;3.54;76.21;97004.63;4957151;28;20185;-71
2023/12/17 07:27:04;;;;;;;0.50;0.50;;;;;;;3.64;75.55;97002.13;4956934;28;20182;-72
2023/12/17 07:29:30;;;;;;;0.57;0.57;;;;;;;3.68;75.57;96987.97;4974429;28;20619;-72
2023/12/17 07:31:55;;;;;;;0.50;0.50;;;;;;;3.85;75.02;96997.94;4975954;28;20205;-71
2023/12/17 07:34:20;;;;;;;0.70;0.70;;;;;;;3.90;75.52;96993.19;4975800;28;20213;-71
2023/12/17 07:36:46;;;;;;;4.53;1.90;;;;;;;4.14;75.69;96980.09;4973883;28;20173;-72
2023/12/17 07:39:11;;;;;;;1.47;1.47;;;;;;;4.61;74.84;96985.94;4972729;28;20200;-72
2023/12/17 07:41:37;;;;;;;0.50;0.50;;;;;;;5.46;72.77;96982.44;4967773;28;20285;-72
2023/12/17 07:44:02;;;;;;;0.60;0.60;;;;;;;6.53;69.37;97004.81;4971004;28;20174;-73
2023/12/17 07:46:28;;;;;;;1.90;1.80;;;;;;;6.85;66.77;97002.81;4971542;28;20618;-70
2023/12/17 07:48:53;;;;;;;1.40;1.40;;;;;;;7.11;66.37;96983.03;4953541;28;20234;-71
2023/12/17 07:51:19;;;;;;;0.60;0.60;;;;;;;7.76;63.98;97023.44;4953673;28;20181;-71
2023/12/17 07:53:44;;;;;;;0.40;0.40;;;;;;;7.67;63.52;97018.22;4953995;28;20670;-70
2023/12/17 07:56:10;;;;;;;0.73;0.73;;;;;;;7.40;63.68;97018.91;4961003;28;20184;-70
2023/12/17 07:58:36;;;;;;;0.50;0.50;;;;;;;7.31;63.96;97040.69;4972501;28;20240;-70
2023/12/17 08:01:01;;;;;;;0.60;0.60;;;;;;;7.07;64.88;97038.44;4972923;28;20696;-70
2023/12/17 08:03:27;;;;;;;2.10;2.00;;;;;;;6.74;64.99;97034.38;4969589;28;20237;-70
2023/12/17 08:05:52;;;;;;;0.60;0.60;;;;;;;6.41;66.46;97033.66;4953516;28;20193;-70
2023/12/17 08:08:19;;;;;;;0.40;0.40;;;;;;;6.06;67.42;97036.66;4969011;28;20186;-69
2023/12/17 08:10:44;;;;;;;0.50;0.50;;;;;;;5.66;68.32;97036.50;4971746;28;20559;-69
2023/12/17 08:13:10;;;;;;;1.83;1.73;;;;;;;5.33;69.84;97034.06;4964679;28;20261;-70
2023/12/17 08:15:37;;;;;;;0.40;0.40;;;;;;;4.99;70.78;97022.88;4953160;28;20185;-70
2023/12/17 08:18:02;;;;;;;0.50;0.50;;;;;;;4.85;71.60;97047.44;4953127;28;20190;-70
2023/12/17 08:20:28;;;;;;;1.37;1.37;;;;;;;4.63;72.92;97041.44;4953472;28;20237;-70
2023/12/17 08:22:53;;;;;;;0.50;0.50;;;;;;;4.32;74.12;97041.22;4953365;28;20703;-70
2023/12/17 08:25:19;;;;;;;0.50;0.50;;;;;;;4.14;74.97;97045.25;4953188;28;20178;-70
2023/12/17 08:27:44;;;;;;;6.50;1.57;;;;;;;4.06;76.03;97043.22;4952927;28;20620;-70
2023/12/17 08:30:11;;;;;;;0.50;0.50;;;;;;;4.02;76.36;97049.59;4952756;28;20605;-70
2023/12/17 08:32:36;;;;;;;0.67;0.67;;;;;;;3.92;76.31;97051.22;4952774;28;20653;-72
2023/12/17 08:35:02;;;;;;;0.50;0.50;;;;;;;3.85;76.84;97044.00;4953453;28;20178;-71
2023/12/17 08:37:29;;;;;;;0.50;0.50;;;;;;;3.82;77.10;97033.78;4952077;28;20600;-71
2023/12/17 08:39:56;;;;;;;0.40;0.40;;;;;;;3.77;77.59;97031.53;4953545;28;20676;-70
2023/12/17 08:42:21;;;;;;;0.50;0.50;;;;;;;3.89;77.22;97030.63;4953286;28;20289;-70
2023/12/17 08:44:47;;;;;;;1.87;1.53;;;;;;;3.92;76.72;97022.56;4953231;28;20639;-69
2023/12/17 08:47:13;;;;;;;1.67;1.60;;;;;;;3.74;75.80;96995.31;4953221;28;20218;-70
2023/12/17 08:49:39;;;;;;;1.50;1.17;;;;;;;3.70;75.86;96997.31;4953026;28;20194;-70
2023/12/17 08:52:05;;;;;;;1.03;0.90;;;;;;;3.81;76.26;97014.72;4952502;28;20582;-70
2023/12/17 08:54:31;;;;;;;0.40;0.40;;;;;;;3.67;76.63;97000.16;4952998;28;20182;-70
2023/12/17 08:56:56;;;;;;;2.10;2.00;;;;;;;3.73;76.76;97010.09;4952699;28;20178;-69
2023/12/17 08:59:22;;;;;;;3.90;1.90;;;;;;;3.71;76.22;97004.19;4952898;28;20186;-69
2023/12/17 09:01:48;;;;;;;0.43;0.43;;;;;;;3.76;76.38;97009.03;4952288;28;20209;-69
2023/12/17 09:04:13;;;;;;;3.20;2.90;;;;;;;3.61;75.70;96997.19;4952229;28;20231;-68
2023/12/17 09:06:44;;;;;;;0.60;0.60;;;;;;;3.66;76.14;97008.06;4952334;28;20182;-68
2023/12/17 09:09:10;;;;;;;0.50;0.50;;;;;;;3.54;76.35;97001.19;4952394;28;20210;-69
2023/12/17 09:11:35;;;;;;;1.47;1.43;;;;;;;3.58;77.25;97002.63;4952608;28;20173;-68
2023/12/17 09:14:01;;;;;;;0.50;0.50;;;;;;;3.52;76.53;96992.66;4952236;28;20178;-69
2023/12/17 09:16:26;;;;;;;1.37;1.27;;;;;;;3.67;75.84;97014.94;4952611;28;20563;-70
2023/12/17 09:19:02;;;;;;;3.50;1.80;;;;;;;3.72;76.84;97007.59;4952339;28;20589;-69
2023/12/17 09:21:28;;;;;;;0.50;0.50;;;;;;;3.81;76.25;97012.13;4952083;28;20196;-69
2023/12/17 09:23:53;;;;;;;1.80;1.63;;;;;;;3.77;75.50;97011.53;4950371;28;20658;-69
2023/12/17 09:26:19;;;;;;;2.57;2.47;;;;;;;3.74;75.86;97008.31;4951550;28;20175;-69
2023/12/17 09:28:44;;;;;;;0.83;0.83;;;;;;;3.80;76.30;97010.50;4949088;28;20208;-69
2023/12/17 09:31:10;;;;;;;0.70;0.70;;;;;;;3.82;76.61;97012.94;4951257;28;20178;-70
2023/12/17 09:33:37;;;;;;;1.13;1.13;;;;;;;3.80;76.66;97010.50;4951991;28;20673;-70
2023/12/17 09:36:06;;;;;;;1.43;1.43;;;;;;;3.92;77.15;97012.16;4951633;28;20182;-70
2023/12/17 09:38:32;;;;;;;1.47;1.47;;;;;;;3.88;77.17;97005.53;4957293;28;20185;-72
2023/12/17 09:40:58;;;;;;;1.50;1.50;;;;;;;3.83;77.08;96989.41;4954315;28;20194;-71
2023/12/17 09:43:24;;;;;;;0.63;0.63;;;;;;;3.92;76.79;97008.72;4950656;28;20229;-69
2023/12/17 09:45:51;;;;;;;0.60;0.60;;;;;;;3.92;76.98;96998.28;4944426;28;20692;-70
2023/12/17 09:48:17;;;;;;;0.57;0.57;;;;;;;4.02;76.68;97002.69;4944840;28;20245;-71
2023/12/17 09:50:43;;;;;;;2.80;2.70;;;;;;;3.83;76.22;96976.38;4950878;28;20189;-70
2023/12/17 09:53:08;;;;;;;0.80;0.80;;;;;;;3.92;76.14;96983.50;4946557;28;20576;-72
2023/12/17 09:55:35;;;;;;;0.87;0.87;;;;;;;3.95;75.91;96995.47;4952086;28;20690;-72
2023/12/17 09:58:04;;;;;;;1.10;1.10;;;;;;;3.97;75.93;96983.16;4952205;28;20205;-71
2023/12/17 10:00:31;;;;;;;0.53;0.53;;;;;;;3.74;75.67;96964.88;4951288;28;20601;-72
2023/12/17 10:03:04;;;;;;;1.50;1.43;;;;;;;3.91;75.60;96978.38;4951179;28;20202;-72
2023/12/17 10:05:30;;;;;;;0.83;0.83;;;;;;;3.70;75.79;96970.44;4950774;28;20197;-72
2023/12/17 10:07:56;;;;;;;2.43;1.67;;;;;;;3.53;75.74;96955.28;4950896;28;20610;-72
2023/12/17 10:10:21;;;;;;;3.10;2.83;;;;;;;3.63;76.88;96967.47;4951547;28;20257;-71
2023/12/17 10:12:47;;;;;;;1.53;1.43;;;;;;;3.68;76.78;96967.13;4951662;28;20182;-71
2023/12/17 10:15:13;;;;;;;1.27;1.27;;;;;;;3.73;76.96;96957.19;4951643;28;20198;-71
2023/12/17 10:17:40;;;;;;;0.53;0.53;;;;;;;3.78;76.11;96963.72;4951438;28;20238;-71
2023/12/17 10:20:07;;;;;;;5.00;1.27;;;;;;;3.84;75.46;96958.97;4950531;28;20189;-70
2023/12/17 10:22:32;;;;;;;0.70;0.70;;;;;;;3.90;75.43;96964.53;4951126;28;20304;-70
2023/12/17 10:24:57;;;;;;;1.33;1.33;;;;;;;3.87;76.31;96958.75;4950748;28;20269;-70
2023/12/17 10:27:23;;;;;;;0.60;0.60;;;;;;;3.87;76.59;96932.69;4951448;28;20190;-70
2023/12/17 10:29:51;;;;;;;0.90;0.90;;;;;;;3.91;75.12;96927.13;4950097;28;20178;-69
2023/12/17 10:32:22;;;;;;;0.93;0.93;;;;;;;4.02;75.40;96958.41;4951294;28;20181;-70
2023/12/17 10:34:50;;;;;;;1.37;1.27;;;;;;;3.99;75.58;96958.63;4964392;28;20181;-70
2023/12/17 10:37:18;;;;;;;1.80;1.70;;;;;;;3.93;75.26;96953.06;4967842;28;20181;-70
2023/12/17 10:39:46;;;;;;;2.07;1.97;;;;;;;3.89;75.82;96949.03;4950370;28;20182;-70
2023/12/17 10:42:12;;;;;;;0.50;0.50;;;;;;;3.92;75.89;96954.00;4950772;28;20285;-70
2023/12/17 10:44:39;;;;;;;1.03;1.03;;;;;;;3.95;75.80;96953.78;4951007;28;20182;-70
2023/12/17 10:47:07;;;;;;;1.17;1.13;;;;;;;3.97;75.37;96952.72;4950810;28;20218;-70
2023/12/17 10:49:32;;;;;;;2.53;2.43;;;;;;;3.86;75.31;96947.50;4950367;28;20190;-69
2023/12/17 10:51:59;;;;;;;1.73;1.63;;;;;;;3.88;76.11;96952.59;4949347;28;20503;-69
2023/12/17 10:54:26;;;;;;;2.13;1.90;;;;;;;3.87;76.12;96951.75;4950890;28;20433;-69
2023/12/17 10:56:59;;;;;;;1.13;1.13;;;;;;;3.93;75.95;96940.03;4950711;28;20209;-70
2023/12/17 10:59:31;;;;;;;1.00;1.00;;;;;;;3.93;76.41;96946.06;4951163;28;20201;-70
2023/12/17 11:01:58;;;;;;;0.90;0.90;;;;;;;3.98;76.30;96941.31;4950992;28;20674;-70
2023/12/17 11:04:24;;;;;;;1.07;1.03;;;;;;;4.02;76.18;96926.28;4951043;28;20187;-70
2023/12/17 11:06:51;;;;;;;0.40;0.40;;;;;;;3.89;76.10;96902.97;4968123;28;20185;-71
2023/12/17 11:09:18;;;;;;;0.50;0.50;;;;;;;4.14;76.38;96923.56;4955462;28;20185;-70
2023/12/17 11:11:46;;;;;;;0.90;0.90;;;;;;;4.20;76.36;96914.44;4950722;28;20552;-69
2023/12/17 11:14:12;;;;;;;0.87;0.87;;;;;;;4.23;76.02;96903.78;4953917;28;20187;-69
2023/12/17 11:16:39;;;;;;;9.23;5.70;;;;;;;4.20;74.95;96911.00;4954316;28;20190;-70
2023/12/17 11:19:05;;;;;;;0.77;0.77;;;;;;;4.20;75.83;96905.78;4954320;28;20220;-70
2023/12/17 11:21:32;;;;;;;7.00;2.83;;;;;;;4.30;75.87;96910.16;4952990;28;20278;-70
2023/12/17 11:23:58;;;;;;;0.57;0.57;;;;;;;4.36;75.81;96916.66;4951799;28;21614;-70
2023/12/17 11:26:24;;;;;;;0.90;0.90;;;;;;;4.24;75.84;96888.97;4950030;28;20182;-70
2023/12/17 11:28:49;;;;;;;2.53;0.90;;;;;;;4.35;75.58;96896.75;4954933;28;20174;-71
2023/12/17 11:31:16;;;;;;;1.13;1.13;;;;;;;4.38;75.81;96896.50;4962007;28;20174;-70
2023/12/17 11:33:42;;;;;;;1.53;1.50;;;;;;;4.34;75.32;96889.88;4956485;28;20183;-70
2023/12/17 11:36:10;;;;;;;2.50;2.40;;;;;;;4.26;74.98;96892.25;4973399;28;20675;-71